Terminal Aerodrome Forecast
Issued by NWS Indianapolis, IN

Home | Current Version | Previous Version | Text Only | Print | Product List | Glossary On
Versions: 1 2 3 4 5 6 7 8 9 10 11 12 13 14 15 16 17 18 19 20 21 22 23 24 25 26 27 28 29 30 31
000
FTUS43 KIND 011400 AAA
TAFIND
TAF AMD
KIND 011416Z 0114/0218 05004KT P6SM BKN250
     FM011700 35005KT P6SM BKN040
     FM020500 07006KT P6SM -SHRA OVC040
     FM021300 08008KT P6SM VCSH OVC040=

USA.gov is the U.S. government's official web portal to all federal, state and local government web resources and services.